Lake Station, Indiana
Current Conditions -  °F | °C
As of 4:45 PM on Friday 31 Oct 2014 (Local Time) from KGYY Reporting Station
Light Rain Light Rain  
Wind Chill: 28°   Ceiling: 1200
Heat Index: 41°   Visibility: 5mi
Dew Point: 32°   Wind: 44mph
Humidity: 70%   Direction: 340°NNW
Pressure: 30.22"   Gusts: 63mph
Location:  41.57°N, 87.24°W
Report Text: KGYY 312145Z 34038G55KT 5SM -RA OVC012 05/00 A3022
Loading
Personal Weather Stations






























Interactive Weather Map
Tropical Storm Tracking
New forecast layout! Learn more

10-Day Weather Forecast

Advertisements
Track Severe Weather on mobile